createdAt,value
2023-01-04T00:00:21.118Z,1008.13
2023-01-04T00:01:21.135Z,1008.08
2023-01-04T00:02:21.273Z,1008.10
2023-01-04T00:03:21.282Z,1008.13
2023-01-04T00:04:21.053Z,1008.09
2023-01-04T00:05:21.090Z,1008.09
2023-01-04T00:06:21.048Z,1008.12
2023-01-04T00:07:21.102Z,1008.11
2023-01-04T00:08:20.991Z,1008.06
2023-01-04T00:09:20.997Z,1008.07
2023-01-04T00:10:20.975Z,1008.11
2023-01-04T00:11:21.071Z,1008.12
2023-01-04T00:12:20.965Z,1008.04
2023-01-04T00:13:21.241Z,1008.03
2023-01-04T00:14:20.939Z,1008.05
2023-01-04T00:15:20.944Z,1007.96
2023-01-04T00:16:21.199Z,1007.96
2023-01-04T00:17:20.910Z,1007.90
2023-01-04T00:18:20.897Z,1007.90
2023-01-04T00:19:20.903Z,1007.88
2023-01-04T00:20:29.996Z,1007.85
2023-01-04T00:21:28.478Z,1007.84
2023-01-04T00:22:27.356Z,1007.75
2023-01-04T00:23:27.338Z,1007.69
2023-01-04T00:24:27.586Z,1007.68
2023-01-04T00:25:20.812Z,1007.67
2023-01-04T00:26:20.836Z,1007.59
2023-01-04T00:27:27.622Z,1007.58
2023-01-04T00:28:20.856Z,1007.55
2023-01-04T00:29:20.783Z,1007.53
2023-01-04T00:30:22.053Z,1007.45
2023-01-04T00:31:20.930Z,1007.45
2023-01-04T00:32:27.269Z,1007.39
2023-01-04T00:33:27.246Z,1007.30
2023-01-04T00:34:20.742Z,1007.26
2023-01-04T00:35:43.975Z,1007.26
2023-01-04T00:36:20.740Z,1007.22
2023-01-04T00:37:20.695Z,1007.23
2023-01-04T00:38:20.694Z,1007.12
2023-01-04T00:39:20.695Z,1007.15
2023-01-04T00:40:20.669Z,1007.18
2023-01-04T00:41:49.316Z,1007.11
2023-01-04T00:42:20.678Z,1007.04
2023-01-04T00:43:20.656Z,1007.09
2023-01-04T00:44:20.628Z,1007.05
2023-01-04T00:45:20.618Z,1007.10
2023-01-04T00:46:20.934Z,1007.05
2023-01-04T00:47:20.623Z,1007.02
2023-01-04T00:48:20.584Z,1006.97
2023-01-04T00:49:20.565Z,1007.01
2023-01-04T00:50:20.563Z,1007.00
2023-01-04T00:51:20.557Z,1006.94
2023-01-04T00:52:20.567Z,1006.94
2023-01-04T00:53:20.526Z,1006.91
2023-01-04T00:54:20.546Z,1006.87
2023-01-04T00:55:20.525Z,1006.84
2023-01-04T00:56:20.498Z,1006.79
2023-01-04T00:57:20.540Z,1006.77
2023-01-04T00:58:20.498Z,1006.85
2023-01-04T00:59:20.494Z,1006.80
2023-01-04T01:00:21.069Z,1006.77
2023-01-04T01:01:20.571Z,1006.84
2023-01-04T01:02:20.609Z,1006.79
2023-01-04T01:03:20.587Z,1006.73
2023-01-04T01:04:20.546Z,1006.77
2023-01-04T01:05:20.400Z,1006.77
2023-01-04T01:06:20.397Z,1006.73
2023-01-04T01:07:20.404Z,1006.68
2023-01-04T01:08:20.378Z,1006.66
2023-01-04T01:09:20.368Z,1006.68
2023-01-04T01:10:20.399Z,1006.61
2023-01-04T01:11:20.350Z,1006.62
2023-01-04T01:12:20.373Z,1006.62
2023-01-04T01:13:20.321Z,1006.58
2023-01-04T01:14:20.316Z,1006.51
2023-01-04T01:15:20.306Z,1006.57
2023-01-04T01:16:37.902Z,1006.52
2023-01-04T01:17:20.306Z,1006.53
2023-01-04T01:18:20.316Z,1006.48
2023-01-04T01:19:20.280Z,1006.47
2023-01-04T01:20:20.246Z,1006.45
2023-01-04T01:21:20.247Z,1006.47
2023-01-04T01:22:20.261Z,1006.45
2023-01-04T01:23:20.218Z,1006.50
2023-01-04T01:24:20.237Z,1006.43
2023-01-04T01:25:20.201Z,1006.39
2023-01-04T01:26:20.197Z,1006.36
2023-01-04T01:27:20.193Z,1006.40
2023-01-04T01:28:20.184Z,1006.29
2023-01-04T01:29:20.215Z,1006.35
2023-01-04T01:30:20.153Z,1006.30
2023-01-04T01:31:20.160Z,1006.22
2023-01-04T01:32:20.211Z,1006.22
2023-01-04T01:33:20.108Z,1006.22
2023-01-04T01:34:20.126Z,1006.20
2023-01-04T01:35:20.109Z,1006.14
2023-01-04T01:36:20.094Z,1006.16
2023-01-04T01:37:20.095Z,1006.12
2023-01-04T01:38:20.118Z,1006.06
2023-01-04T01:39:20.058Z,1006.09
2023-01-04T01:40:20.050Z,1006.15
2023-01-04T01:41:20.037Z,1006.14
2023-01-04T01:42:20.057Z,1006.05
2023-01-04T01:43:20.007Z,1006.02
2023-01-04T01:44:20.008Z,1006.01
2023-01-04T01:45:19.993Z,1006.04
2023-01-04T01:46:20.064Z,1006.09
2023-01-04T01:47:19.994Z,1006.08
2023-01-04T01:48:19.958Z,1006.04
2023-01-04T01:49:19.947Z,1006.00
2023-01-04T01:50:19.945Z,1006.02
2023-01-04T01:51:19.923Z,1006.05
2023-01-04T01:52:19.953Z,1005.99
2023-01-04T01:53:19.926Z,1005.99
2023-01-04T01:54:19.891Z,1006.03
2023-01-04T01:55:19.888Z,1005.93
2023-01-04T01:56:19.931Z,1005.96
2023-01-04T01:57:19.903Z,1005.99
2023-01-04T01:58:19.880Z,1005.96
2023-01-04T01:59:19.837Z,1005.92
2023-01-04T02:00:19.854Z,1005.90
2023-01-04T02:01:19.960Z,1005.98
2023-01-04T02:02:20.039Z,1005.89
2023-01-04T02:03:19.954Z,1005.92
2023-01-04T02:04:19.792Z,1005.87
2023-01-04T02:05:19.786Z,1005.95
2023-01-04T02:06:19.807Z,1005.96
2023-01-04T02:07:19.788Z,1005.92
2023-01-04T02:08:19.763Z,1005.97
2023-01-04T02:09:19.739Z,1005.98
2023-01-04T02:10:19.727Z,1005.94
2023-01-04T02:11:19.718Z,1005.95
2023-01-04T02:12:19.729Z,1005.94
2023-01-04T02:13:19.720Z,1005.96
2023-01-04T02:14:19.706Z,1005.99
2023-01-04T02:15:19.680Z,1005.98
2023-01-04T02:16:19.862Z,1005.92
2023-01-04T02:17:19.682Z,1005.85
2023-01-04T02:18:19.685Z,1005.87
2023-01-04T02:19:19.631Z,1005.82
2023-01-04T02:20:19.644Z,1005.81
2023-01-04T02:21:19.613Z,1005.77
2023-01-04T02:22:19.643Z,1005.69
2023-01-04T02:23:19.591Z,1005.70
2023-01-04T02:24:19.587Z,1005.71
2023-01-04T02:25:19.607Z,1005.52
2023-01-04T02:26:19.561Z,1005.60
2023-01-04T02:27:19.551Z,1005.55
2023-01-04T02:28:19.564Z,1005.58
2023-01-04T02:29:19.566Z,1005.51
2023-01-04T02:30:19.563Z,1005.49
2023-01-04T02:31:19.656Z,1005.44
2023-01-04T02:32:19.493Z,1005.41
2023-01-04T02:33:19.534Z,1005.39
2023-01-04T02:34:19.504Z,1005.42
2023-01-04T02:35:19.463Z,1005.38
2023-01-04T02:36:19.461Z,1005.26
2023-01-04T02:37:19.449Z,1005.27
2023-01-04T02:38:19.467Z,1005.32
2023-01-04T02:39:19.426Z,1005.24
2023-01-04T02:40:19.424Z,1005.27
2023-01-04T02:41:19.400Z,1005.32
2023-01-04T02:42:19.406Z,1005.27
2023-01-04T02:43:19.415Z,1005.15
2023-01-04T02:44:19.377Z,1005.12
2023-01-04T02:45:19.370Z,1005.12
2023-01-04T02:46:19.527Z,1005.05
2023-01-04T02:47:19.349Z,1004.97
2023-01-04T02:48:19.355Z,1005.03
2023-01-04T02:49:19.323Z,1004.92
2023-01-04T02:50:19.324Z,1004.96
2023-01-04T02:51:19.324Z,1005.00
2023-01-04T02:52:19.291Z,1004.98
2023-01-04T02:53:19.307Z,1004.94
2023-01-04T02:54:19.289Z,1004.98
2023-01-04T02:55:19.253Z,1005.14
2023-01-04T02:56:19.251Z,1005.05
2023-01-04T02:57:19.251Z,1004.93
2023-01-04T02:58:19.254Z,1004.79
2023-01-04T02:59:19.215Z,1004.76
2023-01-04T03:00:19.219Z,1004.84
2023-01-04T03:01:19.392Z,1004.86
2023-01-04T03:02:19.416Z,1004.88
2023-01-04T03:03:19.346Z,1004.77
2023-01-04T03:04:19.172Z,1004.81
2023-01-04T03:05:19.156Z,1004.82
2023-01-04T03:06:19.147Z,1004.91
2023-01-04T03:07:19.124Z,1004.83
2023-01-04T03:08:19.149Z,1004.71
2023-01-04T03:09:19.147Z,1004.73
2023-01-04T03:10:19.099Z,1004.72
2023-01-04T03:11:19.088Z,1004.73
2023-01-04T03:12:19.094Z,1004.70
2023-01-04T03:13:19.091Z,1004.71
2023-01-04T03:14:33.203Z,1004.78
2023-01-04T03:15:19.058Z,1004.75
2023-01-04T03:16:19.073Z,1004.71
2023-01-04T03:17:19.024Z,1004.80
2023-01-04T03:18:19.070Z,1004.69
2023-01-04T03:19:19.025Z,1004.66
2023-01-04T03:20:18.996Z,1004.58
2023-01-04T03:21:19.003Z,1004.69
2023-01-04T03:22:19.000Z,1004.48
2023-01-04T03:23:19.020Z,1004.38
2023-01-04T03:24:18.967Z,1004.45
2023-01-04T03:25:18.953Z,1004.48
2023-01-04T03:26:18.945Z,1004.59
2023-01-04T03:27:18.953Z,1004.50
2023-01-04T03:28:18.959Z,1004.53
2023-01-04T03:29:18.907Z,1004.40
2023-01-04T03:30:18.910Z,1004.41
2023-01-04T03:31:18.971Z,1004.39
2023-01-04T03:32:18.908Z,1004.43
2023-01-04T03:33:18.857Z,1004.44
2023-01-04T03:34:18.881Z,1004.29
2023-01-04T03:35:18.857Z,1004.37
2023-01-04T03:36:18.841Z,1004.36
2023-01-04T03:37:18.834Z,1004.22
2023-01-04T03:38:18.813Z,1004.37
2023-01-04T03:39:18.830Z,1004.28
2023-01-04T03:40:18.793Z,1004.29
2023-01-04T03:41:18.776Z,1004.18
2023-01-04T03:42:18.765Z,1004.28
2023-01-04T03:43:18.755Z,1004.18
2023-01-04T03:44:18.776Z,1004.07
2023-01-04T03:45:18.727Z,1004.07
2023-01-04T03:46:18.769Z,1004.14
2023-01-04T03:47:18.824Z,1004.31
2023-01-04T03:48:18.704Z,1004.10
2023-01-04T03:49:18.745Z,1004.14
2023-01-04T03:50:18.701Z,1004.06
2023-01-04T03:51:18.671Z,1003.98
2023-01-04T03:52:18.665Z,1003.83
2023-01-04T03:53:18.651Z,1003.95
2023-01-04T03:54:18.679Z,1003.87
2023-01-04T03:55:18.656Z,1003.87
2023-01-04T03:56:18.623Z,1003.88
2023-01-04T03:57:18.619Z,1003.91
2023-01-04T03:58:18.607Z,1003.74
2023-01-04T03:59:18.633Z,1003.68
2023-01-04T04:00:18.588Z,1003.72
2023-01-04T04:01:18.728Z,1003.68
2023-01-04T04:02:18.619Z,1003.65
2023-01-04T04:03:18.559Z,1003.81
2023-01-04T04:04:18.607Z,1003.63
2023-01-04T04:05:18.531Z,1003.56
2023-01-04T04:06:18.513Z,1003.54
2023-01-04T04:07:18.530Z,1003.55
2023-01-04T04:08:18.558Z,1003.65
2023-01-04T04:09:18.505Z,1003.54
2023-01-04T04:10:18.479Z,1003.56
2023-01-04T04:11:18.457Z,1003.55
2023-01-04T04:12:18.458Z,1003.50
2023-01-04T04:13:18.467Z,1003.51
2023-01-04T04:14:18.458Z,1003.51
2023-01-04T04:15:18.458Z,1003.54
2023-01-04T04:16:18.569Z,1003.44
2023-01-04T04:17:18.403Z,1003.57
2023-01-04T04:18:18.385Z,1003.47
2023-01-04T04:19:18.402Z,1003.51
2023-01-04T04:20:18.435Z,1003.52
2023-01-04T04:21:18.330Z,1003.44
2023-01-04T04:22:18.365Z,1003.48
2023-01-04T04:23:18.332Z,1003.39
2023-01-04T04:24:26.086Z,1003.45
2023-01-04T04:25:24.838Z,1003.48
2023-01-04T04:26:24.809Z,1003.38
2023-01-04T04:27:24.815Z,1003.34
2023-01-04T04:28:24.776Z,1003.41
2023-01-04T04:29:18.281Z,1003.49
2023-01-04T04:30:26.145Z,1003.41
2023-01-04T04:31:18.282Z,1003.35
2023-01-04T04:32:18.322Z,1003.38
2023-01-04T04:33:24.242Z,1003.35
2023-01-04T04:34:24.729Z,1003.39
2023-01-04T04:35:18.233Z,1003.42
2023-01-04T04:36:18.212Z,1003.42
2023-01-04T04:37:18.219Z,1003.42
2023-01-04T04:38:18.236Z,1003.40
2023-01-04T04:39:18.169Z,1003.46
2023-01-04T04:40:33.246Z,1003.43
2023-01-04T04:41:21.371Z,1003.27
2023-01-04T04:42:18.141Z,1003.35
2023-01-04T04:43:18.126Z,1003.38
2023-01-04T04:44:18.127Z,1003.29
2023-01-04T04:45:18.148Z,1003.42
2023-01-04T04:46:18.194Z,1003.31
2023-01-04T04:47:18.104Z,1003.46
2023-01-04T04:48:18.083Z,1003.40
2023-01-04T04:49:18.057Z,1003.43
2023-01-04T04:50:18.123Z,1003.41
2023-01-04T04:51:18.035Z,1003.36
2023-01-04T04:52:18.047Z,1003.35
2023-01-04T04:53:18.023Z,1003.39
2023-01-04T04:54:18.029Z,1003.37
2023-01-04T04:55:18.029Z,1003.40
2023-01-04T04:56:18.017Z,1003.34
2023-01-04T04:57:17.979Z,1003.40
2023-01-04T04:58:17.979Z,1003.40
2023-01-04T04:59:17.956Z,1003.37
2023-01-04T05:00:17.969Z,1003.41
2023-01-04T05:01:18.066Z,1003.28
2023-01-04T05:02:18.140Z,1003.37
2023-01-04T05:03:18.012Z,1003.33
2023-01-04T05:04:17.914Z,1003.34
2023-01-04T05:05:17.908Z,1003.32
2023-01-04T05:06:17.942Z,1003.20
2023-01-04T05:07:17.882Z,1003.24
2023-01-04T05:08:17.871Z,1003.25
2023-01-04T05:09:24.362Z,1003.28
2023-01-04T05:10:17.878Z,1003.24
2023-01-04T05:11:17.848Z,1003.24
2023-01-04T05:12:17.881Z,1003.17
2023-01-04T05:13:17.815Z,1003.18
2023-01-04T05:14:17.803Z,1003.25
2023-01-04T05:15:17.822Z,1003.16
2023-01-04T05:16:17.826Z,1003.27
2023-01-04T05:17:17.783Z,1003.17
2023-01-04T05:18:17.769Z,1003.12
2023-01-04T05:19:17.742Z,1003.20
2023-01-04T05:20:17.781Z,1003.21
2023-01-04T05:21:20.224Z,1003.20
2023-01-04T05:22:17.725Z,1003.15
2023-01-04T05:23:17.698Z,1003.27
2023-01-04T05:24:18.977Z,1003.18
2023-01-04T05:25:17.681Z,1003.25
2023-01-04T05:26:17.699Z,1003.15
2023-01-04T05:27:17.654Z,1003.18
2023-01-04T05:28:17.655Z,1003.09
2023-01-04T05:29:17.638Z,1003.08
2023-01-04T05:30:17.645Z,1003.06
2023-01-04T05:31:17.668Z,1003.05
2023-01-04T05:32:17.646Z,1003.07
2023-01-04T05:33:17.551Z,1003.00
2023-01-04T05:34:22.128Z,1003.02
2023-01-04T05:35:17.595Z,1002.96
2023-01-04T05:36:17.595Z,1002.95
2023-01-04T05:37:17.579Z,1003.00
2023-01-04T05:38:17.545Z,1002.87
2023-01-04T05:39:17.551Z,1002.82
2023-01-04T05:40:17.549Z,1002.84
2023-01-04T05:41:17.564Z,1002.99
2023-01-04T05:42:17.501Z,1002.84
2023-01-04T05:43:17.493Z,1002.89
2023-01-04T05:44:17.492Z,1002.93
2023-01-04T05:45:17.483Z,1002.92
2023-01-04T05:46:17.531Z,1002.88
2023-01-04T05:47:17.446Z,1002.82
2023-01-04T05:48:17.446Z,1002.71
2023-01-04T05:49:17.431Z,1002.76
2023-01-04T05:50:17.419Z,1002.75
2023-01-04T05:51:17.436Z,1002.67
2023-01-04T05:52:17.441Z,1002.70
2023-01-04T05:53:17.409Z,1002.71
2023-01-04T05:54:21.292Z,1002.71
2023-01-04T05:55:17.364Z,1002.73
2023-01-04T05:56:17.383Z,1002.72
2023-01-04T05:57:17.359Z,1002.65
2023-01-04T05:58:17.362Z,1002.62
2023-01-04T05:59:17.331Z,1002.63
2023-01-04T06:00:17.317Z,1002.60
2023-01-04T06:01:17.387Z,1002.58
2023-01-04T06:02:17.411Z,1002.55
2023-01-04T06:03:17.430Z,1002.60
2023-01-04T06:04:17.290Z,1002.55
2023-01-04T06:05:17.263Z,1002.60
2023-01-04T06:06:17.283Z,1002.50
2023-01-04T06:07:17.257Z,1002.49
2023-01-04T06:08:17.177Z,27672.53
2023-01-04T06:09:17.164Z,27672.53
2023-01-04T06:10:17.158Z,27672.53
2023-01-04T06:11:20.165Z,27672.53
2023-01-04T06:12:17.144Z,27672.53
2023-01-04T06:13:17.114Z,27672.53
2023-01-04T06:14:17.102Z,27672.53
2023-01-04T06:15:17.110Z,27672.53
2023-01-04T06:16:17.207Z,27672.53
2023-01-04T06:17:17.158Z,27672.53
2023-01-04T06:18:17.079Z,27672.53
2023-01-04T06:19:17.065Z,27672.53
2023-01-04T06:20:17.045Z,27672.53
2023-01-04T06:21:17.059Z,27672.53
2023-01-04T06:22:17.065Z,27672.53
2023-01-04T06:23:17.031Z,27672.53
2023-01-04T06:24:17.000Z,27672.53
2023-01-04T06:25:16.999Z,27672.53
2023-01-04T06:26:17.004Z,27672.53
2023-01-04T06:27:16.999Z,27672.53
2023-01-04T06:28:16.978Z,27672.53
2023-01-04T06:29:16.951Z,27672.53
2023-01-04T06:30:16.940Z,27672.53
2023-01-04T06:31:16.989Z,27672.53
2023-01-04T06:32:16.973Z,27672.53
2023-01-04T06:33:16.925Z,27672.53
2023-01-04T06:34:16.902Z,27672.53
2023-01-04T06:35:16.917Z,27672.53
2023-01-04T06:36:20.045Z,27672.53
2023-01-04T06:37:16.913Z,27672.53
2023-01-04T06:38:16.854Z,27672.53
2023-01-04T06:39:16.840Z,27672.53
2023-01-04T06:40:16.852Z,27672.53
2023-01-04T06:41:16.822Z,27672.53
2023-01-04T06:42:16.834Z,27672.53
2023-01-04T06:43:16.810Z,27672.53
2023-01-04T06:44:16.791Z,27672.53
2023-01-04T06:45:16.794Z,27672.53
2023-01-04T06:46:16.966Z,27672.53
2023-01-04T06:47:16.773Z,27672.53
2023-01-04T06:48:18.219Z,27672.53
2023-01-04T06:49:16.753Z,27672.53
2023-01-04T06:50:16.750Z,27672.53
2023-01-04T06:51:16.720Z,27672.53
2023-01-04T06:52:16.738Z,27672.53
2023-01-04T06:53:16.726Z,27672.53
2023-01-04T06:54:16.699Z,27672.53
2023-01-04T06:55:16.702Z,27672.53
2023-01-04T06:56:16.676Z,27672.53
2023-01-04T06:57:16.681Z,27672.53
2023-01-04T06:58:16.659Z,27672.53
2023-01-04T06:59:16.634Z,27672.53
2023-01-04T07:00:16.681Z,27672.53
2023-01-04T07:01:16.725Z,27672.53
2023-01-04T07:02:16.927Z,27672.53
2023-01-04T07:03:23.236Z,27672.53
2023-01-04T07:04:16.688Z,27672.53
2023-01-04T07:05:16.569Z,27672.53
2023-01-04T07:06:16.597Z,27672.53
2023-01-04T07:07:16.564Z,27672.53
2023-01-04T07:08:16.563Z,27672.53
2023-01-04T07:09:16.533Z,27672.53
2023-01-04T07:10:16.531Z,27672.53
2023-01-04T07:11:16.517Z,27672.53
2023-01-04T07:12:16.518Z,27672.53
2023-01-04T07:13:16.528Z,27672.53
2023-01-04T07:14:16.486Z,27672.53
2023-01-04T07:15:38.738Z,27672.53
2023-01-04T07:16:16.579Z,27672.53
2023-01-04T07:17:16.443Z,27672.53
2023-01-04T07:18:16.462Z,27672.53
2023-01-04T07:19:16.423Z,27672.53
2023-01-04T07:20:16.439Z,27672.53
2023-01-04T07:21:16.427Z,27672.53
2023-01-04T07:22:16.403Z,27672.53
2023-01-04T07:23:16.474Z,27672.53
2023-01-04T07:24:16.380Z,27672.53
2023-01-04T07:25:16.368Z,27672.53
2023-01-04T07:26:16.373Z,27672.53
2023-01-04T07:27:16.351Z,27672.53
2023-01-04T07:28:16.356Z,27672.53
2023-01-04T07:29:16.335Z,27672.53
2023-01-04T07:30:16.325Z,27672.53
2023-01-04T07:31:16.338Z,27672.53
2023-01-04T07:32:16.293Z,27672.53
2023-01-04T07:33:16.304Z,27672.53
2023-01-04T07:34:16.285Z,27672.53
2023-01-04T07:35:16.260Z,27672.53
2023-01-04T07:36:16.255Z,27672.53
2023-01-04T07:37:16.248Z,27672.53
2023-01-04T07:38:16.252Z,27672.53
2023-01-04T07:39:16.232Z,27672.53
2023-01-04T07:40:16.227Z,27672.53
2023-01-04T07:41:16.212Z,27672.53
2023-01-04T07:42:16.205Z,27672.53
2023-01-04T07:43:16.205Z,27672.53
2023-01-04T07:44:16.186Z,27672.53
2023-01-04T07:45:16.172Z,27672.53
2023-01-04T07:46:16.178Z,27672.53
2023-01-04T07:47:16.141Z,27672.53
2023-01-04T07:48:16.156Z,27672.53
2023-01-04T07:49:17.908Z,27672.53
2023-01-04T07:50:16.150Z,27672.53
2023-01-04T07:51:16.107Z,27672.53
2023-01-04T07:52:16.168Z,27672.53
2023-01-04T07:53:16.112Z,27672.53
2023-01-04T07:54:16.088Z,27672.53
2023-01-04T07:55:16.061Z,27672.53
2023-01-04T07:56:18.868Z,27672.53
2023-01-04T07:57:16.038Z,27672.53
2023-01-04T07:58:16.033Z,27672.53
2023-01-04T07:59:16.029Z,27672.53
2023-01-04T08:00:16.015Z,27672.53
2023-01-04T08:01:16.199Z,27672.53
2023-01-04T08:02:16.191Z,27672.53
2023-01-04T08:03:15.987Z,27672.53
2023-01-04T08:04:16.050Z,27672.53
2023-01-04T08:05:15.998Z,27672.53
2023-01-04T08:06:15.945Z,27672.53
2023-01-04T08:07:15.938Z,27672.53
2023-01-04T08:08:15.943Z,27672.53
2023-01-04T08:09:15.942Z,27672.53
2023-01-04T08:10:15.902Z,27672.53
2023-01-04T08:11:15.926Z,27672.53
2023-01-04T08:12:15.948Z,27672.53
2023-01-04T08:13:15.867Z,27672.53
2023-01-04T08:14:15.879Z,27672.53
2023-01-04T08:15:15.852Z,27672.53
2023-01-04T08:16:15.929Z,27672.53
2023-01-04T08:17:15.829Z,27672.53
2023-01-04T08:18:18.948Z,27672.53
2023-01-04T08:19:15.836Z,27672.53
2023-01-04T08:20:15.798Z,27672.53
2023-01-04T08:21:15.805Z,27672.53
2023-01-04T08:22:15.779Z,27672.53
2023-01-04T08:23:15.770Z,27672.53
2023-01-04T08:24:15.776Z,27672.53
2023-01-04T08:25:15.765Z,27672.53
2023-01-04T08:26:15.736Z,27672.53
2023-01-04T08:27:15.751Z,27672.53
2023-01-04T08:28:15.709Z,27672.53
2023-01-04T08:29:15.735Z,27672.53
2023-01-04T08:30:15.692Z,27672.53
2023-01-04T08:31:15.813Z,27672.53
2023-01-04T08:32:15.693Z,27672.53
2023-01-04T08:33:15.691Z,27672.53
2023-01-04T08:34:15.698Z,27672.53
2023-01-04T08:35:15.646Z,27672.53
2023-01-04T08:36:18.474Z,27672.53
2023-01-04T08:37:15.639Z,27672.53
2023-01-04T08:38:56.102Z,27672.53
2023-01-04T08:39:15.654Z,27672.53
2023-01-04T08:40:15.602Z,27672.53
2023-01-04T08:41:56.170Z,27672.53
2023-01-04T08:42:24.829Z,27672.53
2023-01-04T08:44:26.375Z,1001.61
2023-01-04T08:45:27.333Z,1001.61
2023-01-04T08:46:27.391Z,1001.64
2023-01-04T08:47:27.320Z,1001.54
2023-01-04T08:48:27.311Z,1001.53
2023-01-04T08:49:27.327Z,1001.57
2023-01-04T08:50:27.293Z,1001.45
2023-01-04T08:51:27.317Z,1001.54
2023-01-04T08:52:27.284Z,1001.47
2023-01-04T08:53:27.271Z,1001.55
2023-01-04T08:54:27.275Z,1001.45
2023-01-04T08:55:27.258Z,1001.45
2023-01-04T08:56:27.225Z,1001.47
2023-01-04T08:57:27.244Z,1001.39
2023-01-04T08:58:27.212Z,1001.55
2023-01-04T08:59:27.217Z,1001.44
2023-01-04T09:00:27.271Z,1001.44
2023-01-04T09:01:27.358Z,1001.42
2023-01-04T09:02:27.434Z,1001.49
2023-01-04T09:03:27.206Z,1001.43
2023-01-04T09:04:27.220Z,1001.40
2023-01-04T09:05:27.138Z,1001.43
2023-01-04T09:06:27.224Z,1001.44
2023-01-04T09:07:27.131Z,1001.44
2023-01-04T09:08:27.121Z,1001.57
2023-01-04T09:09:27.087Z,1001.46
2023-01-04T09:10:27.128Z,1001.54
2023-01-04T09:11:27.088Z,1001.50
2023-01-04T09:12:27.068Z,1001.42
2023-01-04T09:13:27.054Z,1001.55
2023-01-04T09:14:27.057Z,1001.54
2023-01-04T09:15:27.051Z,1001.53
2023-01-04T09:16:27.049Z,1001.44
2023-01-04T09:17:27.011Z,1001.43
2023-01-04T09:18:31.076Z,1001.42
2023-01-04T09:19:27.008Z,1001.45
2023-01-04T09:20:27.007Z,1001.37
2023-01-04T09:21:27.076Z,1001.37
2023-01-04T09:22:27.055Z,1001.40
2023-01-04T09:23:26.953Z,1001.38
2023-01-04T09:24:26.967Z,1001.35
2023-01-04T09:25:26.948Z,1001.32
2023-01-04T09:26:26.951Z,1001.28
2023-01-04T09:27:26.910Z,1001.33
2023-01-04T09:28:26.910Z,1001.23
2023-01-04T09:29:26.891Z,1001.23
2023-01-04T09:30:26.907Z,1001.28
2023-01-04T09:31:26.932Z,1001.32
2023-01-04T09:32:26.865Z,1001.31
2023-01-04T09:33:47.716Z,1001.31
2023-01-04T09:34:26.853Z,1001.33
2023-01-04T09:35:26.861Z,1001.25
2023-01-04T09:36:26.854Z,1001.22
2023-01-04T09:37:26.817Z,1001.20
2023-01-04T09:38:26.804Z,1001.24
2023-01-04T09:39:26.791Z,1001.21
2023-01-04T09:40:26.805Z,1001.24
2023-01-04T09:41:26.762Z,1001.27
2023-01-04T09:42:31.664Z,1001.24
2023-01-04T09:43:26.761Z,1001.34
2023-01-04T09:44:46.159Z,1001.27
2023-01-04T09:45:26.765Z,1001.27
2023-01-04T09:46:26.807Z,1001.22
2023-01-04T09:47:26.707Z,1001.19
2023-01-04T09:48:26.802Z,1001.24
2023-01-04T09:49:26.684Z,1001.21
2023-01-04T09:50:26.832Z,1001.19
2023-01-04T09:51:33.143Z,1001.22
2023-01-04T09:52:33.661Z,1001.20
2023-01-04T09:53:26.649Z,1001.18
2023-01-04T09:54:26.653Z,1001.22
2023-01-04T09:55:38.842Z,1001.16
2023-01-04T09:56:26.647Z,1001.22
2023-01-04T09:57:26.642Z,1001.25
2023-01-04T09:58:26.610Z,1001.18
2023-01-04T09:59:26.582Z,1001.16
2023-01-04T10:00:26.693Z,1001.29
2023-01-04T10:01:26.693Z,1001.17
2023-01-04T10:02:26.770Z,1001.13
2023-01-04T10:03:26.721Z,1001.30
2023-01-04T10:04:26.544Z,1001.12
2023-01-04T10:05:26.572Z,1001.17
2023-01-04T10:06:26.527Z,1001.16
2023-01-04T10:07:26.512Z,1001.20
2023-01-04T10:08:26.504Z,1001.09
2023-01-04T10:09:26.492Z,1001.17
2023-01-04T10:10:26.501Z,1001.13
2023-01-04T10:11:27.522Z,1001.13
2023-01-04T10:12:26.453Z,1001.10
2023-01-04T10:13:26.440Z,1001.17
2023-01-04T10:14:26.444Z,1001.07
2023-01-04T10:15:26.425Z,1001.11
2023-01-04T10:17:01.238Z,1001.17
2023-01-04T10:17:57.619Z,1001.12
2023-01-04T10:21:10.330Z,1001.13
2023-01-04T10:21:32.711Z,1001.06
2023-01-04T10:21:38.015Z,1001.16
2023-01-04T10:22:35.017Z,1001.14
2023-01-04T10:23:34.990Z,1001.14
2023-01-04T10:24:34.989Z,1001.06
2023-01-04T10:25:35.016Z,1001.07
2023-01-04T10:26:34.962Z,1001.10
2023-01-04T10:27:40.892Z,1001.16
2023-01-04T10:28:34.960Z,1001.09
2023-01-04T10:29:34.922Z,1001.13
2023-01-04T10:30:34.925Z,1001.07
2023-01-04T10:31:40.347Z,1001.08
2023-01-04T10:32:35.108Z,1001.09
2023-01-04T10:33:34.891Z,1000.95
2023-01-04T10:34:34.904Z,1000.99
2023-01-04T10:35:34.873Z,1000.98
2023-01-04T10:36:34.881Z,1000.99
2023-01-04T10:37:34.858Z,1000.98
2023-01-04T10:38:34.865Z,1000.99
2023-01-04T10:39:34.822Z,1001.02
2023-01-04T10:40:34.817Z,1000.93
2023-01-04T10:41:34.823Z,1000.92
2023-01-04T10:42:34.797Z,1000.96
2023-01-04T10:44:10.085Z,1000.95
2023-01-04T10:44:34.792Z,1000.89
2023-01-04T10:45:34.774Z,1000.93
2023-01-04T10:46:34.815Z,1000.81
2023-01-04T10:47:34.739Z,1000.90
2023-01-04T10:48:34.741Z,1000.94
2023-01-04T10:49:34.718Z,1000.98
2023-01-04T10:50:34.725Z,1000.91
2023-01-04T10:51:34.768Z,1001.00
2023-01-04T10:52:34.689Z,1000.85
2023-01-04T10:53:34.683Z,1000.88
2023-01-04T10:54:34.707Z,1000.99
2023-01-04T10:55:40.658Z,1000.94
2023-01-04T10:56:34.685Z,1000.99
2023-01-04T10:57:34.656Z,1000.97
2023-01-04T10:58:34.633Z,1001.06
2023-01-04T10:59:34.619Z,1000.91
2023-01-04T11:00:34.693Z,1000.99
2023-01-04T11:01:34.734Z,1000.92
2023-01-04T11:02:34.832Z,1001.01
2023-01-04T11:03:34.610Z,1000.88
2023-01-04T11:04:34.569Z,1000.87
2023-01-04T11:05:34.655Z,1000.87
2023-01-04T11:06:34.563Z,1000.84
2023-01-04T11:07:34.579Z,1000.79
2023-01-04T11:08:34.527Z,1000.90
2023-01-04T11:09:34.514Z,1000.88
2023-01-04T11:10:34.515Z,1000.81
2023-01-04T11:11:34.531Z,1000.80
2023-01-04T11:12:34.478Z,1000.71
2023-01-04T11:13:34.469Z,1000.78
2023-01-04T11:14:37.409Z,1000.75
2023-01-04T11:15:34.451Z,1000.73
2023-01-04T11:16:34.539Z,1000.81
2023-01-04T11:17:34.452Z,1000.76
2023-01-04T11:18:34.413Z,1000.71
2023-01-04T11:19:34.431Z,1000.82
2023-01-04T11:20:38.109Z,1000.78
2023-01-04T11:21:34.431Z,1000.66
2023-01-04T11:22:34.399Z,1000.76
2023-01-04T11:23:34.376Z,1000.65
2023-01-04T11:24:34.589Z,1000.64
2023-01-04T11:25:35.778Z,1000.74
2023-01-04T11:26:34.363Z,1000.63
2023-01-04T11:27:34.320Z,1000.67
2023-01-04T11:28:34.311Z,1000.64
2023-01-04T11:29:34.302Z,1000.62
2023-01-04T11:30:34.289Z,1000.60
2023-01-04T11:31:34.344Z,1000.61
2023-01-04T11:32:34.279Z,1000.70
2023-01-04T11:33:34.285Z,1000.61
2023-01-04T11:34:34.245Z,1000.60
2023-01-04T11:35:37.607Z,1000.60
2023-01-04T11:36:34.257Z,1000.61
2023-01-04T11:37:34.232Z,1000.53
2023-01-04T11:38:34.213Z,1000.51
2023-01-04T11:39:34.219Z,1000.63
2023-01-04T11:40:34.180Z,1000.55
2023-01-04T11:41:34.205Z,1000.58
2023-01-04T11:42:34.166Z,1000.55
2023-01-04T11:43:34.158Z,1000.45
2023-01-04T11:44:34.151Z,1000.51
2023-01-04T11:45:34.168Z,1000.46
2023-01-04T11:46:34.188Z,1000.52
2023-01-04T11:47:34.133Z,1000.46
2023-01-04T11:48:34.101Z,1000.47
2023-01-04T11:49:34.095Z,1000.47
2023-01-04T11:50:34.086Z,1000.50
2023-01-04T11:51:34.076Z,1000.35
2023-01-04T11:52:34.095Z,1000.44
2023-01-04T11:53:34.056Z,1000.33
2023-01-04T11:54:34.040Z,1000.36
2023-01-04T11:55:34.036Z,1000.34
2023-01-04T11:56:34.035Z,1000.33
2023-01-04T11:57:34.044Z,1000.32
2023-01-04T11:58:34.005Z,1000.27
2023-01-04T11:59:34.003Z,1000.29
2023-01-04T12:00:33.977Z,1000.26
2023-01-04T12:01:34.078Z,1000.26
2023-01-04T12:03:33.986Z,1000.30
2023-01-04T12:04:35.567Z,1000.28